sensor_id;sensor_type;location;lat;lon;timestamp;pressure;altitude;pressure_sealevel;temperature;humidity
51287;BME280;37364;46.974;18.916;2024-03-22T00:01:10;152384.97;;;8.08;100.00
51287;BME280;37364;46.974;18.916;2024-03-22T00:03:37;152381.09;;;8.07;100.00
51287;BME280;37364;46.974;18.916;2024-03-22T00:06:03;152375.94;;;8.05;100.00
51287;BME280;37364;46.974;18.916;2024-03-22T00:08:29;152378.53;;;8.06;100.00
51287;BME280;37364;46.974;18.916;2024-03-22T00:10:55;152375.94;;;8.05;100.00
51287;BME280;37364;46.974;18.916;2024-03-22T00:13:22;152387.53;;;8.09;100.00
51287;BME280;37364;46.974;18.916;2024-03-22T00:15:50;152423.75;;;8.24;100.00
51287;BME280;37364;46.974;18.916;2024-03-22T00:18:16;152432.81;;;8.27;100.00
51287;BME280;37364;46.974;18.916;2024-03-22T00:20:43;152428.94;;;8.26;100.00
51287;BME280;37364;46.974;18.916;2024-03-22T00:23:09;152435.38;;;8.28;100.00
51287;BME280;37364;46.974;18.916;2024-03-22T00:25:35;152423.75;;;8.24;100.00
51287;BME280;37364;46.974;18.916;2024-03-22T00:28:01;152414.72;;;8.20;100.00
51287;BME280;37364;46.974;18.916;2024-03-22T00:30:27;152426.31;;;8.25;100.00
51287;BME280;37364;46.974;18.916;2024-03-22T00:32:56;152431.50;;;8.27;100.00
51287;BME280;37364;46.974;18.916;2024-03-22T00:35:22;152430.22;;;8.26;100.00
51287;BME280;37364;46.974;18.916;2024-03-22T00:37:49;152426.31;;;8.25;100.00
51287;BME280;37364;46.974;18.916;2024-03-22T00:40:15;152423.75;;;8.24;100.00
51287;BME280;37364;46.974;18.916;2024-03-22T00:42:41;152421.16;;;8.23;100.00
51287;BME280;37364;46.974;18.916;2024-03-22T00:45:08;152443.16;;;8.31;100.00
51287;BME280;37364;46.974;18.916;2024-03-22T00:47:35;152422.47;;;8.23;100.00
51287;BME280;37364;46.974;18.916;2024-03-22T00:50:04;152423.75;;;8.24;100.00
51287;BME280;37364;46.974;18.916;2024-03-22T00:52:31;152426.31;;;8.25;100.00
51287;BME280;37364;46.974;18.916;2024-03-22T00:54:57;152419.88;;;8.22;100.00
51287;BME280;37364;46.974;18.916;2024-03-22T00:57:23;152413.44;;;8.20;100.00
51287;BME280;37364;46.974;18.916;2024-03-22T00:59:49;152409.53;;;8.18;100.00
51287;BME280;37364;46.974;18.916;2024-03-22T01:02:16;152408.25;;;8.18;100.00
51287;BME280;37364;46.974;18.916;2024-03-22T01:04:44;152409.53;;;8.18;100.00
51287;BME280;37364;46.974;18.916;2024-03-22T01:07:24;152419.88;;;8.22;100.00
51287;BME280;37364;46.974;18.916;2024-03-22T01:09:51;152427.66;;;8.25;100.00
51287;BME280;37364;46.974;18.916;2024-03-22T01:12:19;152435.38;;;8.28;100.00
51287;BME280;37364;46.974;18.916;2024-03-22T01:14:45;152453.50;;;8.36;100.00
51287;BME280;37364;46.974;18.916;2024-03-22T01:17:11;152472.94;;;8.43;100.00
51287;BME280;37364;46.974;18.916;2024-03-22T01:19:38;152482.00;;;8.47;100.00
51287;BME280;37364;46.974;18.916;2024-03-22T01:22:04;152479.38;;;8.46;100.00
51287;BME280;37364;46.974;18.916;2024-03-22T01:24:33;152482.00;;;8.47;100.00
51287;BME280;37364;46.974;18.916;2024-03-22T01:26:59;152501.38;;;8.55;100.00
51287;BME280;37364;46.974;18.916;2024-03-22T01:29:25;152513.00;;;8.59;100.00
51287;BME280;37364;46.974;18.916;2024-03-22T01:31:51;152522.06;;;8.63;100.00
51287;BME280;37364;46.974;18.916;2024-03-22T01:34:17;152511.72;;;8.59;100.00
51287;BME280;37364;46.974;18.916;2024-03-22T01:36:43;152500.06;;;8.54;100.00
51287;BME280;37364;46.974;18.916;2024-03-22T01:39:09;152487.16;;;8.49;100.00
51287;BME280;37364;46.974;18.916;2024-03-22T01:41:38;152498.78;;;8.54;100.00
51287;BME280;37364;46.974;18.916;2024-03-22T01:44:04;152507.84;;;8.57;100.00
51287;BME280;37364;46.974;18.916;2024-03-22T01:46:30;152509.13;;;8.58;100.00
51287;BME280;37364;46.974;18.916;2024-03-22T01:48:57;152496.16;;;8.52;100.00
51287;BME280;37364;46.974;18.916;2024-03-22T01:51:23;152522.06;;;8.63;100.00
51287;BME280;37364;46.974;18.916;2024-03-22T01:53:49;152509.13;;;8.58;100.00
51287;BME280;37364;46.974;18.916;2024-03-22T01:56:16;152524.63;;;8.64;100.00
51287;BME280;37364;46.974;18.916;2024-03-22T01:58:45;152524.63;;;8.64;100.00
51287;BME280;37364;46.974;18.916;2024-03-22T02:01:12;152525.91;;;8.64;100.00
51287;BME280;37364;46.974;18.916;2024-03-22T02:03:38;152523.34;;;8.63;100.00
51287;BME280;37364;46.974;18.916;2024-03-22T02:06:04;152523.34;;;8.63;100.00
51287;BME280;37364;46.974;18.916;2024-03-22T02:08:30;152518.19;;;8.61;100.00
51287;BME280;37364;46.974;18.916;2024-03-22T02:10:57;152525.91;;;8.64;100.00
51287;BME280;37364;46.974;18.916;2024-03-22T02:13:24;152503.94;;;8.56;100.00
51287;BME280;37364;46.974;18.916;2024-03-22T02:15:53;152502.66;;;8.55;100.00
51287;BME280;37364;46.974;18.916;2024-03-22T02:18:19;152500.06;;;8.54;100.00
51287;BME280;37364;46.974;18.916;2024-03-22T02:20:45;152513.00;;;8.59;100.00
51287;BME280;37364;46.974;18.916;2024-03-22T02:23:11;152515.56;;;8.60;100.00
51287;BME280;37364;46.974;18.916;2024-03-22T02:25:40;152509.13;;;8.58;100.00
51287;BME280;37364;46.974;18.916;2024-03-22T02:28:06;152515.56;;;8.60;100.00
51287;BME280;37364;46.974;18.916;2024-03-22T02:30:32;152510.41;;;8.58;100.00
51287;BME280;37364;46.974;18.916;2024-03-22T02:32:58;152506.56;;;8.57;100.00
51287;BME280;37364;46.974;18.916;2024-03-22T02:35:24;152516.91;;;8.61;100.00
51287;BME280;37364;46.974;18.916;2024-03-22T02:37:50;152514.28;;;8.60;100.00
51287;BME280;37364;46.974;18.916;2024-03-22T02:40:17;152522.06;;;8.63;100.00
51287;BME280;37364;46.974;18.916;2024-03-22T02:42:48;152531.13;;;8.66;100.00
51287;BME280;37364;46.974;18.916;2024-03-22T02:45:15;152533.69;;;8.67;100.00
51287;BME280;37364;46.974;18.916;2024-03-22T02:47:41;152546.63;;;8.73;100.00
51287;BME280;37364;46.974;18.916;2024-03-22T02:50:07;152558.25;;;8.77;100.00
51287;BME280;37364;46.974;18.916;2024-03-22T02:52:33;152567.31;;;8.81;100.00
51287;BME280;37364;46.974;18.916;2024-03-22T02:55:00;152545.31;;;8.72;100.00
51287;BME280;37364;46.974;18.916;2024-03-22T02:57:26;152542.75;;;8.71;100.00
51287;BME280;37364;46.974;18.916;2024-03-22T02:59:55;152551.81;;;8.75;100.00
51287;BME280;37364;46.974;18.916;2024-03-22T03:02:21;152562.16;;;8.79;100.00
51287;BME280;37364;46.974;18.916;2024-03-22T03:04:48;152586.72;;;8.88;100.00
51287;BME280;37364;46.974;18.916;2024-03-22T03:07:16;152568.59;;;8.81;100.00
51287;BME280;37364;46.974;18.916;2024-03-22T03:09:46;152585.44;;;8.88;100.00
51287;BME280;37364;46.974;18.916;2024-03-22T03:12:12;152611.28;;;8.98;100.00
51287;BME280;37364;46.974;18.916;2024-03-22T03:14:38;152597.06;;;8.93;100.00
51287;BME280;37364;46.974;18.916;2024-03-22T03:17:07;152625.53;;;9.04;100.00
51287;BME280;37364;46.974;18.916;2024-03-22T03:19:33;152622.91;;;9.03;100.00
51287;BME280;37364;46.974;18.916;2024-03-22T03:22:01;152613.84;;;8.99;100.00
51287;BME280;37364;46.974;18.916;2024-03-22T03:24:27;152641.03;;;9.10;100.00
51287;BME280;37364;46.974;18.916;2024-03-22T03:26:54;152683.69;;;9.27;100.00
51287;BME280;37364;46.974;18.916;2024-03-22T03:29:21;152687.56;;;9.28;100.00
51287;BME280;37364;46.974;18.916;2024-03-22T03:31:47;152690.19;;;9.29;100.00
51287;BME280;37364;46.974;18.916;2024-03-22T03:34:15;152700.53;;;9.34;100.00
51287;BME280;37364;46.974;18.916;2024-03-22T03:36:42;152721.22;;;9.42;100.00
51287;BME280;37364;46.974;18.916;2024-03-22T03:39:08;152714.75;;;9.39;100.00
51287;BME280;37364;46.974;18.916;2024-03-22T03:41:34;152712.16;;;9.38;100.00
51287;BME280;37364;46.974;18.916;2024-03-22T03:44:00;152704.41;;;9.35;100.00
51287;BME280;37364;46.974;18.916;2024-03-22T03:46:26;152716.03;;;9.40;100.00
51287;BME280;37364;46.974;18.916;2024-03-22T03:48:52;152730.28;;;9.45;100.00
51287;BME280;37364;46.974;18.916;2024-03-22T03:51:21;152725.09;;;9.43;100.00
51287;BME280;37364;46.974;18.916;2024-03-22T03:53:47;152717.31;;;9.40;100.00
51287;BME280;37364;46.974;18.916;2024-03-22T03:56:13;152745.81;;;9.52;100.00
51287;BME280;37364;46.974;18.916;2024-03-22T03:58:39;152765.22;;;9.59;100.00
51287;BME280;37364;46.974;18.916;2024-03-22T04:01:07;152756.16;;;9.56;100.00
51287;BME280;37364;46.974;18.916;2024-03-22T04:03:33;152732.84;;;9.46;100.00
51287;BME280;37364;46.974;18.916;2024-03-22T04:05:59;152745.81;;;9.52;100.00
51287;BME280;37364;46.974;18.916;2024-03-22T04:08:28;152763.94;;;9.59;100.00
51287;BME280;37364;46.974;18.916;2024-03-22T04:10:55;152774.28;;;9.63;100.00
51287;BME280;37364;46.974;18.916;2024-03-22T04:13:21;152787.19;;;9.68;100.00
51287;BME280;37364;46.974;18.916;2024-03-22T04:15:48;152800.13;;;9.73;100.00
51287;BME280;37364;46.974;18.916;2024-03-22T04:18:14;152792.34;;;9.70;100.00
51287;BME280;37364;46.974;18.916;2024-03-22T04:20:40;152787.19;;;9.68;100.00
51287;BME280;37364;46.974;18.916;2024-03-22T04:23:06;152806.59;;;9.76;100.00
51287;BME280;37364;46.974;18.916;2024-03-22T04:25:35;152800.13;;;9.73;100.00
51287;BME280;37364;46.974;18.916;2024-03-22T04:28:02;152820.84;;;9.81;100.00
51287;BME280;37364;46.974;18.916;2024-03-22T04:30:28;152824.72;;;9.83;100.00
51287;BME280;37364;46.974;18.916;2024-03-22T04:32:54;152815.66;;;9.79;100.00
51287;BME280;37364;46.974;18.916;2024-03-22T04:35:21;152805.31;;;9.75;100.00
51287;BME280;37364;46.974;18.916;2024-03-22T04:37:47;152805.31;;;9.75;100.00
51287;BME280;37364;46.974;18.916;2024-03-22T04:40:13;152792.34;;;9.70;100.00
51287;BME280;37364;46.974;18.916;2024-03-22T04:42:42;152806.59;;;9.76;100.00
51287;BME280;37364;46.974;18.916;2024-03-22T04:45:08;152794.97;;;9.71;100.00
51287;BME280;37364;46.974;18.916;2024-03-22T04:47:34;152789.78;;;9.69;100.00
51287;BME280;37364;46.974;18.916;2024-03-22T04:50:00;152805.31;;;9.75;100.00
51287;BME280;37364;46.974;18.916;2024-03-22T04:52:28;152800.13;;;9.73;100.00
51287;BME280;37364;46.974;18.916;2024-03-22T04:54:54;152784.63;;;9.67;100.00
51287;BME280;37364;46.974;18.916;2024-03-22T04:57:20;152824.72;;;9.83;100.00
51287;BME280;37364;46.974;18.916;2024-03-22T04:59:49;152844.13;;;9.90;100.00
51287;BME280;37364;46.974;18.916;2024-03-22T05:02:15;152842.84;;;9.90;100.00
51287;BME280;37364;46.974;18.916;2024-03-22T05:04:41;152827.28;;;9.84;100.00
51287;BME280;37364;46.974;18.916;2024-03-22T05:07:07;152823.44;;;9.82;100.00
51287;BME280;37364;46.974;18.916;2024-03-22T05:09:33;152836.34;;;9.87;100.00
51287;BME280;37364;46.974;18.916;2024-03-22T05:11:59;152840.25;;;9.89;100.00
51287;BME280;37364;46.974;18.916;2024-03-22T05:14:25;152831.19;;;9.85;100.00
51287;BME280;37364;46.974;18.916;2024-03-22T05:16:54;152848.03;;;9.92;100.00
51287;BME280;37364;46.974;18.916;2024-03-22T05:19:20;152850.59;;;9.93;100.00
51287;BME280;37364;46.974;18.916;2024-03-22T05:21:46;152872.63;;;10.02;100.00
51287;BME280;37364;46.974;18.916;2024-03-22T05:24:13;152867.44;;;10.00;100.00
51287;BME280;37364;46.974;18.916;2024-03-22T05:26:39;152882.97;;;10.06;100.00
51287;BME280;37364;46.974;18.916;2024-03-22T05:29:05;152867.44;;;10.00;100.00
51287;BME280;37364;46.974;18.916;2024-03-22T05:31:31;152870.00;;;10.01;100.00
51287;BME280;37364;46.974;18.916;2024-03-22T05:34:00;152877.81;;;10.04;100.00
51287;BME280;37364;46.974;18.916;2024-03-22T05:36:26;152884.25;;;10.06;100.00
51287;BME280;37364;46.974;18.916;2024-03-22T05:38:52;152888.16;;;10.08;100.00
51287;BME280;37364;46.974;18.916;2024-03-22T05:41:18;152888.16;;;10.08;100.00
51287;BME280;37364;46.974;18.916;2024-03-22T05:43:44;152897.22;;;10.12;100.00
51287;BME280;37364;46.974;18.916;2024-03-22T05:46:10;152914.03;;;10.18;100.00
51287;BME280;37364;46.974;18.916;2024-03-22T05:48:36;152915.31;;;10.19;100.00
51287;BME280;37364;46.974;18.916;2024-03-22T05:51:05;152925.66;;;10.23;100.00
51287;BME280;37364;46.974;18.916;2024-03-22T05:53:31;152925.66;;;10.23;100.00
51287;BME280;37364;46.974;18.916;2024-03-22T05:55:58;152937.34;;;10.27;100.00
51287;BME280;37364;46.974;18.916;2024-03-22T05:58:24;152943.84;;;10.30;100.00
51287;BME280;37364;46.974;18.916;2024-03-22T06:00:50;152972.34;;;10.41;100.00
51287;BME280;37364;46.974;18.916;2024-03-22T06:03:16;152963.25;;;10.38;100.00
51287;BME280;37364;46.974;18.916;2024-03-22T06:05:43;152977.50;;;10.43;100.00
51287;BME280;37364;46.974;18.916;2024-03-22T06:08:12;152994.31;;;10.50;100.00
51287;BME280;37364;46.974;18.916;2024-03-22T06:10:38;152996.94;;;10.51;100.00
51287;BME280;37364;46.974;18.916;2024-03-22T06:13:04;153012.47;;;10.57;100.00
51287;BME280;37364;46.974;18.916;2024-03-22T06:15:30;153009.84;;;10.56;100.00
51287;BME280;37364;46.974;18.916;2024-03-22T06:17:56;153046.13;;;10.71;100.00
51287;BME280;37364;46.974;18.916;2024-03-22T06:20:22;153033.16;;;10.65;100.00
51287;BME280;37364;46.974;18.916;2024-03-22T06:22:48;153053.88;;;10.74;100.00
51287;BME280;37364;46.974;18.916;2024-03-22T06:25:17;153064.22;;;10.78;100.00
51287;BME280;37364;46.974;18.916;2024-03-22T06:27:43;153101.81;;;10.93;100.00
51287;BME280;37364;46.974;18.916;2024-03-22T06:30:11;153086.28;;;10.86;100.00
51287;BME280;37364;46.974;18.916;2024-03-22T06:32:37;153099.19;;;10.92;100.00
51287;BME280;37364;46.974;18.916;2024-03-22T06:35:05;153117.34;;;10.99;100.00
51287;BME280;37364;46.974;18.916;2024-03-22T06:37:32;153117.34;;;10.99;100.00
51287;BME280;37364;46.974;18.916;2024-03-22T06:39:58;153134.22;;;11.05;100.00
51287;BME280;37364;46.974;18.916;2024-03-22T06:42:27;153166.56;;;11.18;100.00
51287;BME280;37364;46.974;18.916;2024-03-22T06:44:53;153149.75;;;11.12;100.00
51287;BME280;37364;46.974;18.916;2024-03-22T06:47:19;153164.00;;;11.17;100.00
51287;BME280;37364;46.974;18.916;2024-03-22T06:49:46;153158.78;;;11.15;100.00
51287;BME280;37364;46.974;18.916;2024-03-22T06:52:14;153179.53;;;11.23;100.00
51287;BME280;37364;46.974;18.916;2024-03-22T06:54:40;153158.78;;;11.15;100.00
51287;BME280;37364;46.974;18.916;2024-03-22T06:57:09;153198.97;;;11.31;100.00
51287;BME280;37364;46.974;18.916;2024-03-22T06:59:39;153208.00;;;11.35;100.00
51287;BME280;37364;46.974;18.916;2024-03-22T07:02:07;153200.25;;;11.32;100.00
51287;BME280;37364;46.974;18.916;2024-03-22T07:04:34;153200.25;;;11.32;100.00
51287;BME280;37364;46.974;18.916;2024-03-22T07:07:03;153252.03;;;11.52;100.00
51287;BME280;37364;46.974;18.916;2024-03-22T07:09:29;153253.38;;;11.53;100.00
51287;BME280;37364;46.974;18.916;2024-03-22T07:11:55;153297.38;;;11.70;100.00
51287;BME280;37364;46.974;18.916;2024-03-22T07:14:23;153298.72;;;11.71;100.00
51287;BME280;37364;46.974;18.916;2024-03-22T07:17:05;153310.38;;;11.75;100.00
51287;BME280;37364;46.974;18.916;2024-03-22T07:19:32;153337.59;;;11.86;100.00
51287;BME280;37364;46.974;18.916;2024-03-22T07:21:58;153335.00;;;11.85;100.00
51287;BME280;37364;46.974;18.916;2024-03-22T07:24:25;153318.16;;;11.78;100.00
51287;BME280;37364;46.974;18.916;2024-03-22T07:26:51;153319.44;;;11.79;100.00
51287;BME280;37364;46.974;18.916;2024-03-22T07:29:17;153350.56;;;11.91;100.00
51287;BME280;37364;46.974;18.916;2024-03-22T07:31:43;153357.09;;;11.94;100.00
51287;BME280;37364;46.974;18.916;2024-03-22T07:34:12;153399.84;;;12.11;100.00
51287;BME280;37364;46.974;18.916;2024-03-22T07:36:39;153476.34;;;12.41;100.00
51287;BME280;37364;46.974;18.916;2024-03-22T07:39:05;153494.44;;;12.48;100.00
51287;BME280;37364;46.974;18.916;2024-03-22T07:41:31;153512.63;;;12.55;100.00
51287;BME280;37364;46.974;18.916;2024-03-22T07:43:58;153570.97;;;12.78;100.00
51287;BME280;37364;46.974;18.916;2024-03-22T07:46:24;153564.47;;;12.76;100.00
51287;BME280;37364;46.974;18.916;2024-03-22T07:48:50;153576.16;;;12.80;100.00
51287;BME280;37364;46.974;18.916;2024-03-22T07:51:19;153525.59;;;12.60;100.00
51287;BME280;37364;46.974;18.916;2024-03-22T07:53:45;153569.66;;;12.78;100.00
51287;BME280;37364;46.974;18.916;2024-03-22T07:56:11;153523.00;;;12.59;100.00
51287;BME280;37364;46.974;18.916;2024-03-22T07:58:38;153572.25;;;12.79;100.00
51287;BME280;37364;46.974;18.916;2024-03-22T08:01:04;153596.91;;;12.89;100.00
51287;BME280;37364;46.974;18.916;2024-03-22T08:03:30;153600.81;;;12.90;100.00
51287;BME280;37364;46.974;18.916;2024-03-22T08:05:56;153578.72;;;12.81;100.00
51287;BME280;37364;46.974;18.916;2024-03-22T08:08:25;153585.25;;;12.84;100.00
51287;BME280;37364;46.974;18.916;2024-03-22T08:10:51;153608.56;;;12.93;100.00
51287;BME280;37364;46.974;18.916;2024-03-22T08:13:17;153637.09;;;13.04;100.00
51287;BME280;37364;46.974;18.916;2024-03-22T08:15:44;153689.00;;;13.25;100.00
51287;BME280;37364;46.974;18.916;2024-03-22T08:18:10;153730.53;;;13.41;100.00
51287;BME280;37364;46.974;18.916;2024-03-22T08:20:36;153689.00;;;13.25;100.00
51287;BME280;37364;46.974;18.916;2024-03-22T08:23:02;153685.09;;;13.23;100.00
51287;BME280;37364;46.974;18.916;2024-03-22T08:25:31;153733.13;;;13.42;100.00
51287;BME280;37364;46.974;18.916;2024-03-22T08:28:00;153730.53;;;13.41;100.00
51287;BME280;37364;46.974;18.916;2024-03-22T08:30:26;153725.34;;;13.39;100.00
51287;BME280;37364;46.974;18.916;2024-03-22T08:32:53;153650.09;;;13.10;100.00
51287;BME280;37364;46.974;18.916;2024-03-22T08:35:20;153648.75;;;13.09;100.00
51287;BME280;37364;46.974;18.916;2024-03-22T08:37:46;153637.09;;;13.04;100.00
51287;BME280;37364;46.974;18.916;2024-03-22T08:40:13;153606.00;;;12.92;100.00
51287;BME280;37364;46.974;18.916;2024-03-22T08:42:42;153641.00;;;13.06;100.00
51287;BME280;37364;46.974;18.916;2024-03-22T08:45:09;153648.75;;;13.09;100.00
51287;BME280;37364;46.974;18.916;2024-03-22T08:47:36;153661.75;;;13.14;100.00
51287;BME280;37364;46.974;18.916;2024-03-22T08:50:03;153689.00;;;13.25;100.00
51287;BME280;37364;46.974;18.916;2024-03-22T08:52:29;153727.94;;;13.40;100.00
51287;BME280;37364;46.974;18.916;2024-03-22T08:54:56;153731.84;;;13.42;100.00
51287;BME280;37364;46.974;18.916;2024-03-22T08:57:22;153748.72;;;13.49;100.00
51287;BME280;37364;46.974;18.916;2024-03-22T08:59:53;153743.53;;;13.47;100.00
51287;BME280;37364;46.974;18.916;2024-03-22T09:02:19;153774.66;;;13.59;100.00
51287;BME280;37364;46.974;18.916;2024-03-22T09:04:45;153849.91;;;13.89;100.00
51287;BME280;37364;46.974;18.916;2024-03-22T09:07:12;153774.66;;;13.59;100.00
51287;BME280;37364;46.974;18.916;2024-03-22T09:09:38;153775.94;;;13.59;100.00
51287;BME280;37364;46.974;18.916;2024-03-22T09:12:06;153759.09;;;13.53;100.00
51287;BME280;37364;46.974;18.916;2024-03-22T09:14:32;153753.91;;;13.51;100.00
51287;BME280;37364;46.974;18.916;2024-03-22T09:17:01;153773.38;;;13.58;100.00
51287;BME280;37364;46.974;18.916;2024-03-22T09:19:29;153738.31;;;13.44;100.00
51287;BME280;37364;46.974;18.916;2024-03-22T09:21:56;153783.75;;;13.62;100.00
51287;BME280;37364;46.974;18.916;2024-03-22T09:24:23;153775.94;;;13.59;100.00
51287;BME280;37364;46.974;18.916;2024-03-22T09:26:50;153823.97;;;13.78;100.00
51287;BME280;37364;46.974;18.916;2024-03-22T09:29:17;153808.41;;;13.72;100.00
51287;BME280;37364;46.974;18.916;2024-03-22T09:31:43;153766.84;;;13.56;100.00
51287;BME280;37364;46.974;18.916;2024-03-22T09:34:14;153779.84;;;13.61;100.00
51287;BME280;37364;46.974;18.916;2024-03-22T09:36:40;153794.13;;;13.67;100.00
51287;BME280;37364;46.974;18.916;2024-03-22T09:39:10;153844.72;;;13.87;100.00
51287;BME280;37364;46.974;18.916;2024-03-22T09:41:42;153930.38;;;14.20;100.00
51287;BME280;37364;46.974;18.916;2024-03-22T09:44:13;153982.31;;;14.41;100.00
51287;BME280;37364;46.974;18.916;2024-03-22T09:46:42;154033.00;;;14.61;100.00
51287;BME280;37364;46.974;18.916;2024-03-22T09:49:09;154016.03;;;14.54;100.00
51287;BME280;37364;46.974;18.916;2024-03-22T09:51:44;154113.47;;;14.93;100.00
51287;BME280;37364;46.974;18.916;2024-03-22T09:54:10;154114.75;;;14.93;100.00
51287;BME280;37364;46.974;18.916;2024-03-22T09:56:39;154107.00;;;14.90;100.00
51287;BME280;37364;46.974;18.916;2024-03-22T09:59:06;154136.88;;;15.02;100.00
51287;BME280;37364;46.974;18.916;2024-03-22T10:01:34;154184.88;;;15.21;100.00
51287;BME280;37364;46.974;18.916;2024-03-22T10:04:00;154310.94;;;15.71;100.00
51287;BME280;37364;46.974;18.916;2024-03-22T10:06:29;154187.50;;;15.22;100.00
51287;BME280;37364;46.974;18.916;2024-03-22T10:09:00;154078.41;;;14.79;100.00
51287;BME280;37364;46.974;18.916;2024-03-22T10:11:28;154099.19;;;14.87;100.00
51287;BME280;37364;46.974;18.916;2024-03-22T10:13:54;154114.75;;;14.93;100.00
51287;BME280;37364;46.974;18.916;2024-03-22T10:16:22;154156.34;;;15.10;100.00
51287;BME280;37364;46.974;18.916;2024-03-22T10:18:48;154066.75;;;14.74;100.00
51287;BME280;37364;46.974;18.916;2024-03-22T10:21:18;154014.75;;;14.54;100.00
51287;BME280;37364;46.974;18.916;2024-03-22T10:23:47;154113.47;;;14.93;100.00
51287;BME280;37364;46.974;18.916;2024-03-22T10:26:16;154099.19;;;14.87;100.00
51287;BME280;37364;46.974;18.916;2024-03-22T10:28:48;154075.84;;;14.78;100.00
51287;BME280;37364;46.974;18.916;2024-03-22T10:31:15;154004.38;;;14.50;100.00
51287;BME280;37364;46.974;18.916;2024-03-22T10:33:41;154183.59;;;15.20;100.00
51287;BME280;37364;46.974;18.916;2024-03-22T10:36:10;154182.31;;;15.20;100.00
51287;BME280;37364;46.974;18.916;2024-03-22T10:38:39;154262.84;;;15.52;100.00
51287;BME280;37364;46.974;18.916;2024-03-22T10:41:05;154157.63;;;15.10;100.00
51287;BME280;37364;46.974;18.916;2024-03-22T10:43:36;154169.31;;;15.15;100.00
51287;BME280;37364;46.974;18.916;2024-03-22T10:46:05;154330.47;;;15.78;100.00
51287;BME280;37364;46.974;18.916;2024-03-22T10:48:33;154218.66;;;15.34;100.00
51287;BME280;37364;46.974;18.916;2024-03-22T10:51:03;154381.13;;;15.98;100.00
51287;BME280;37364;46.974;18.916;2024-03-22T10:53:32;154453.94;;;16.27;100.00
51287;BME280;37364;46.974;18.916;2024-03-22T10:56:01;154343.44;;;15.84;100.00
51287;BME280;37364;46.974;18.916;2024-03-22T10:58:37;154359.06;;;15.90;100.00
51287;BME280;37364;46.974;18.916;2024-03-22T11:01:06;154468.25;;;16.33;100.00
51287;BME280;37364;46.974;18.916;2024-03-22T11:03:35;154512.38;;;16.50;100.00
51287;BME280;37364;46.974;18.916;2024-03-22T11:06:01;154511.09;;;16.50;100.00
51287;BME280;37364;46.974;18.916;2024-03-22T11:08:29;154639.88;;;17.00;100.00
51287;BME280;37364;46.974;18.916;2024-03-22T11:10:56;154595.66;;;16.83;100.00
51287;BME280;37364;46.974;18.916;2024-03-22T11:13:23;154641.16;;;17.01;100.00
51287;BME280;37364;46.974;18.916;2024-03-22T11:15:52;154615.16;;;16.91;100.00
51287;BME280;37364;46.974;18.916;2024-03-22T11:18:18;154641.16;;;17.01;100.00
51287;BME280;37364;46.974;18.916;2024-03-22T11:20:45;154665.88;;;17.11;100.00
51287;BME280;37364;46.974;18.916;2024-03-22T11:23:12;154730.88;;;17.36;100.00
51287;BME280;37364;46.974;18.916;2024-03-22T11:25:38;154707.50;;;17.27;100.00
51287;BME280;37364;46.974;18.916;2024-03-22T11:28:05;154671.06;;;17.13;100.00
51287;BME280;37364;46.974;18.916;2024-03-22T11:30:33;154439.63;;;16.21;100.00
51287;BME280;37364;46.974;18.916;2024-03-22T11:33:04;154517.59;;;16.52;100.00
51287;BME280;37364;46.974;18.916;2024-03-22T11:35:30;154464.31;;;16.31;100.00
51287;BME280;37364;46.974;18.916;2024-03-22T11:37:58;154434.44;;;16.19;100.00
51287;BME280;37364;46.974;18.916;2024-03-22T11:40:25;154515.00;;;16.51;100.00
51287;BME280;37364;46.974;18.916;2024-03-22T11:42:53;154434.44;;;16.19;100.00
51287;BME280;37364;46.974;18.916;2024-03-22T11:45:24;154470.81;;;16.34;100.00
51287;BME280;37364;46.974;18.916;2024-03-22T11:47:52;154556.59;;;16.68;100.00
51287;BME280;37364;46.974;18.916;2024-03-22T11:50:22;154582.63;;;16.78;100.00
51287;BME280;37364;46.974;18.916;2024-03-22T11:52:48;154602.19;;;16.86;100.00
51287;BME280;37364;46.974;18.916;2024-03-22T11:55:15;154624.28;;;16.94;100.00
51287;BME280;37364;46.974;18.916;2024-03-22T11:57:41;154721.81;;;17.33;100.00
51287;BME280;37364;46.974;18.916;2024-03-22T12:00:12;154656.81;;;17.07;97.80
51287;BME280;37364;46.974;18.916;2024-03-22T12:02:40;154557.94;;;16.68;95.70
51287;BME280;37364;46.974;18.916;2024-03-22T12:05:07;154459.13;;;16.29;95.05
51287;BME280;37364;46.974;18.916;2024-03-22T12:07:36;154526.69;;;16.56;94.30
51287;BME280;37364;46.974;18.916;2024-03-22T12:10:03;154546.19;;;16.64;94.82
51287;BME280;37364;46.974;18.916;2024-03-22T12:12:30;154499.41;;;16.45;90.17
51287;BME280;37364;46.974;18.916;2024-03-22T12:14:57;154599.56;;;16.85;91.24
51287;BME280;37364;46.974;18.916;2024-03-22T12:17:26;154676.25;;;17.15;87.78
51287;BME280;37364;46.974;18.916;2024-03-22T12:19:52;154781.66;;;17.56;88.06
51287;BME280;37364;46.974;18.916;2024-03-22T12:22:18;154716.63;;;17.31;82.11
51287;BME280;37364;46.974;18.916;2024-03-22T12:24:47;154668.50;;;17.12;80.88
51287;BME280;37364;46.974;18.916;2024-03-22T12:27:15;154652.91;;;17.06;78.39
51287;BME280;37364;46.974;18.916;2024-03-22T12:29:41;154629.47;;;16.96;76.12
51287;BME280;37364;46.974;18.916;2024-03-22T12:32:07;154703.59;;;17.26;75.90
51287;BME280;37364;46.974;18.916;2024-03-22T12:34:34;154742.63;;;17.41;74.26